sensor_id;sensor_type;location;lat;lon;timestamp;P1;durP1;ratioP1;P2;durP2;ratioP2
12814;SDS011;6472;52.328;13.070;2023-04-01T00:00:01;1.67;;;0.80;;
12814;SDS011;6472;52.328;13.070;2023-04-01T00:02:30;2.73;;;1.00;;
12814;SDS011;6472;52.328;13.070;2023-04-01T00:04:58;0.67;;;0.67;;
12814;SDS011;6472;52.328;13.070;2023-04-01T00:07:26;1.47;;;1.10;;
12814;SDS011;6472;52.328;13.070;2023-04-01T00:09:56;1.00;;;0.80;;
12814;SDS011;6472;52.328;13.070;2023-04-01T00:12:24;0.80;;;0.80;;
12814;SDS011;6472;52.328;13.070;2023-04-01T00:14:53;0.70;;;0.70;;
12814;SDS011;6472;52.328;13.070;2023-04-01T00:17:22;0.60;;;0.60;;
12814;SDS011;6472;52.328;13.070;2023-04-01T00:19:50;2.67;;;0.80;;
12814;SDS011;6472;52.328;13.070;2023-04-01T00:22:18;0.80;;;0.80;;
12814;SDS011;6472;52.328;13.070;2023-04-01T00:24:46;0.50;;;0.50;;
12814;SDS011;6472;52.328;13.070;2023-04-01T00:27:14;1.27;;;0.97;;
12814;SDS011;6472;52.328;13.070;2023-04-01T00:29:42;1.30;;;1.20;;
12814;SDS011;6472;52.328;13.070;2023-04-01T00:32:12;0.80;;;0.80;;
12814;SDS011;6472;52.328;13.070;2023-04-01T00:34:41;2.00;;;1.20;;
12814;SDS011;6472;52.328;13.070;2023-04-01T00:37:10;0.80;;;0.80;;
12814;SDS011;6472;52.328;13.070;2023-04-01T00:39:38;0.60;;;0.60;;
12814;SDS011;6472;52.328;13.070;2023-04-01T00:42:06;1.60;;;0.60;;
12814;SDS011;6472;52.328;13.070;2023-04-01T00:44:36;0.53;;;0.53;;
12814;SDS011;6472;52.328;13.070;2023-04-01T00:47:05;0.70;;;0.70;;
12814;SDS011;6472;52.328;13.070;2023-04-01T00:49:35;1.33;;;1.00;;
12814;SDS011;6472;52.328;13.070;2023-04-01T00:52:07;5.00;;;0.90;;
12814;SDS011;6472;52.328;13.070;2023-04-01T00:54:38;0.67;;;0.67;;
12814;SDS011;6472;52.328;13.070;2023-04-01T00:57:09;0.60;;;0.60;;
12814;SDS011;6472;52.328;13.070;2023-04-01T00:59:42;0.60;;;0.60;;
12814;SDS011;6472;52.328;13.070;2023-04-01T01:02:13;0.53;;;0.53;;
12814;SDS011;6472;52.328;13.070;2023-04-01T01:04:45;0.63;;;0.60;;
12814;SDS011;6472;52.328;13.070;2023-04-01T01:07:16;0.87;;;0.60;;
12814;SDS011;6472;52.328;13.070;2023-04-01T01:09:51;1.27;;;0.80;;
12814;SDS011;6472;52.328;13.070;2023-04-01T01:12:25;2.37;;;0.80;;
12814;SDS011;6472;52.328;13.070;2023-04-01T01:15:02;1.57;;;0.80;;
12814;SDS011;6472;52.328;13.070;2023-04-01T01:17:39;0.70;;;0.40;;
12814;SDS011;6472;52.328;13.070;2023-04-01T01:20:22;1.10;;;1.00;;
12814;SDS011;6472;52.328;13.070;2023-04-01T01:23:15;1.67;;;1.07;;
12814;SDS011;6472;52.328;13.070;2023-04-01T01:26:07;0.50;;;0.50;;
12814;SDS011;6472;52.328;13.070;2023-04-01T01:28:57;0.77;;;0.60;;
12814;SDS011;6472;52.328;13.070;2023-04-01T01:31:39;1.23;;;0.70;;
12814;SDS011;6472;52.328;13.070;2023-04-01T01:34:15;2.90;;;1.00;;
12814;SDS011;6472;52.328;13.070;2023-04-01T01:36:52;1.50;;;0.87;;
12814;SDS011;6472;52.328;13.070;2023-04-01T01:39:24;1.27;;;0.67;;
12814;SDS011;6472;52.328;13.070;2023-04-01T01:47:12;3.20;;;0.80;;
12814;SDS011;6472;52.328;13.070;2023-04-01T01:49:42;1.60;;;0.57;;
12814;SDS011;6472;52.328;13.070;2023-04-01T01:52:14;0.70;;;0.70;;
12814;SDS011;6472;52.328;13.070;2023-04-01T01:54:48;0.90;;;0.90;;
12814;SDS011;6472;52.328;13.070;2023-04-01T01:57:16;2.50;;;0.90;;
12814;SDS011;6472;52.328;13.070;2023-04-01T01:59:46;0.77;;;0.77;;
12814;SDS011;6472;52.328;13.070;2023-04-01T02:02:16;0.60;;;0.60;;
12814;SDS011;6472;52.328;13.070;2023-04-01T02:04:45;0.80;;;0.80;;
12814;SDS011;6472;52.328;13.070;2023-04-01T02:07:18;3.30;;;0.90;;
12814;SDS011;6472;52.328;13.070;2023-04-01T02:09:49;1.27;;;0.60;;
12814;SDS011;6472;52.328;13.070;2023-04-01T02:12:18;2.70;;;1.00;;
12814;SDS011;6472;52.328;13.070;2023-04-01T02:14:49;1.20;;;0.70;;
12814;SDS011;6472;52.328;13.070;2023-04-01T02:17:21;1.47;;;0.57;;
12814;SDS011;6472;52.328;13.070;2023-04-01T02:19:51;2.03;;;0.83;;
12814;SDS011;6472;52.328;13.070;2023-04-01T02:22:23;4.03;;;0.70;;
12814;SDS011;6472;52.328;13.070;2023-04-01T02:24:54;1.07;;;0.77;;
12814;SDS011;6472;52.328;13.070;2023-04-01T02:27:26;1.20;;;0.67;;
12814;SDS011;6472;52.328;13.070;2023-04-01T02:29:55;0.80;;;0.80;;
12814;SDS011;6472;52.328;13.070;2023-04-01T02:32:24;3.33;;;1.00;;
12814;SDS011;6472;52.328;13.070;2023-04-01T02:34:54;3.67;;;0.90;;
12814;SDS011;6472;52.328;13.070;2023-04-01T02:37:24;2.50;;;0.90;;
12814;SDS011;6472;52.328;13.070;2023-04-01T02:39:52;3.40;;;0.90;;
12814;SDS011;6472;52.328;13.070;2023-04-01T02:42:21;0.60;;;0.60;;
12814;SDS011;6472;52.328;13.070;2023-04-01T02:44:49;0.67;;;0.67;;
12814;SDS011;6472;52.328;13.070;2023-04-01T02:47:17;3.33;;;0.77;;
12814;SDS011;6472;52.328;13.070;2023-04-01T02:49:45;1.13;;;0.93;;
12814;SDS011;6472;52.328;13.070;2023-04-01T02:52:13;0.60;;;0.60;;
12814;SDS011;6472;52.328;13.070;2023-04-01T02:54:42;2.27;;;1.07;;
12814;SDS011;6472;52.328;13.070;2023-04-01T02:57:10;0.73;;;0.73;;
12814;SDS011;6472;52.328;13.070;2023-04-01T02:59:38;3.90;;;0.90;;
12814;SDS011;6472;52.328;13.070;2023-04-01T03:02:06;1.37;;;0.77;;
12814;SDS011;6472;52.328;13.070;2023-04-01T03:04:34;2.87;;;1.07;;
12814;SDS011;6472;52.328;13.070;2023-04-01T03:07:02;1.30;;;0.90;;
12814;SDS011;6472;52.328;13.070;2023-04-01T03:09:30;1.07;;;0.63;;
12814;SDS011;6472;52.328;13.070;2023-04-01T03:11:59;0.60;;;0.60;;
12814;SDS011;6472;52.328;13.070;2023-04-01T03:14:27;1.70;;;1.17;;
12814;SDS011;6472;52.328;13.070;2023-04-01T03:16:56;1.57;;;1.13;;
12814;SDS011;6472;52.328;13.070;2023-04-01T03:19:24;1.03;;;0.90;;
12814;SDS011;6472;52.328;13.070;2023-04-01T03:21:52;0.63;;;0.63;;
12814;SDS011;6472;52.328;13.070;2023-04-01T03:24:20;1.07;;;0.83;;
12814;SDS011;6472;52.328;13.070;2023-04-01T03:26:48;2.00;;;1.00;;
12814;SDS011;6472;52.328;13.070;2023-04-01T03:29:18;0.83;;;0.83;;
12814;SDS011;6472;52.328;13.070;2023-04-01T03:31:46;0.87;;;0.87;;
12814;SDS011;6472;52.328;13.070;2023-04-01T03:34:13;0.83;;;0.80;;
12814;SDS011;6472;52.328;13.070;2023-04-01T03:36:41;3.30;;;0.83;;
12814;SDS011;6472;52.328;13.070;2023-04-01T03:39:09;0.70;;;0.57;;
12814;SDS011;6472;52.328;13.070;2023-04-01T03:41:38;2.37;;;1.00;;
12814;SDS011;6472;52.328;13.070;2023-04-01T03:44:06;2.07;;;0.67;;
12814;SDS011;6472;52.328;13.070;2023-04-01T03:46:36;0.83;;;0.83;;
12814;SDS011;6472;52.328;13.070;2023-04-01T03:49:06;0.77;;;0.77;;
12814;SDS011;6472;52.328;13.070;2023-04-01T03:51:37;1.07;;;1.07;;
12814;SDS011;6472;52.328;13.070;2023-04-01T03:54:06;1.40;;;1.30;;
12814;SDS011;6472;52.328;13.070;2023-04-01T03:56:34;3.37;;;1.03;;
12814;SDS011;6472;52.328;13.070;2023-04-01T03:59:03;1.43;;;1.00;;
12814;SDS011;6472;52.328;13.070;2023-04-01T04:01:31;1.93;;;1.10;;
12814;SDS011;6472;52.328;13.070;2023-04-01T04:04:01;3.63;;;0.83;;
12814;SDS011;6472;52.328;13.070;2023-04-01T04:06:29;3.10;;;0.93;;
12814;SDS011;6472;52.328;13.070;2023-04-01T04:08:57;1.23;;;1.13;;
12814;SDS011;6472;52.328;13.070;2023-04-01T04:11:25;3.50;;;1.00;;
12814;SDS011;6472;52.328;13.070;2023-04-01T04:13:52;2.93;;;0.93;;
12814;SDS011;6472;52.328;13.070;2023-04-01T04:16:23;1.27;;;1.03;;
12814;SDS011;6472;52.328;13.070;2023-04-01T04:18:51;0.60;;;0.60;;
12814;SDS011;6472;52.328;13.070;2023-04-01T04:21:20;1.00;;;0.83;;
12814;SDS011;6472;52.328;13.070;2023-04-01T04:23:48;0.77;;;0.77;;
12814;SDS011;6472;52.328;13.070;2023-04-01T04:26:17;1.07;;;1.00;;
12814;SDS011;6472;52.328;13.070;2023-04-01T04:28:45;5.07;;;1.10;;
12814;SDS011;6472;52.328;13.070;2023-04-01T04:31:17;2.37;;;1.03;;
12814;SDS011;6472;52.328;13.070;2023-04-01T04:33:47;1.30;;;0.70;;
12814;SDS011;6472;52.328;13.070;2023-04-01T04:36:15;2.67;;;1.10;;
12814;SDS011;6472;52.328;13.070;2023-04-01T04:38:44;0.83;;;0.67;;
12814;SDS011;6472;52.328;13.070;2023-04-01T04:41:13;0.53;;;0.53;;
12814;SDS011;6472;52.328;13.070;2023-04-01T04:43:47;0.97;;;0.90;;
12814;SDS011;6472;52.328;13.070;2023-04-01T04:46:16;2.13;;;1.07;;
12814;SDS011;6472;52.328;13.070;2023-04-01T04:48:45;0.80;;;0.80;;
12814;SDS011;6472;52.328;13.070;2023-04-01T04:51:13;1.23;;;1.13;;
12814;SDS011;6472;52.328;13.070;2023-04-01T04:53:42;1.97;;;0.83;;
12814;SDS011;6472;52.328;13.070;2023-04-01T04:56:12;2.90;;;1.33;;
12814;SDS011;6472;52.328;13.070;2023-04-01T04:58:44;1.53;;;0.60;;
12814;SDS011;6472;52.328;13.070;2023-04-01T05:01:12;0.83;;;0.83;;
12814;SDS011;6472;52.328;13.070;2023-04-01T05:03:42;0.80;;;0.80;;
12814;SDS011;6472;52.328;13.070;2023-04-01T05:06:11;0.87;;;0.87;;
12814;SDS011;6472;52.328;13.070;2023-04-01T05:08:40;1.33;;;1.00;;
12814;SDS011;6472;52.328;13.070;2023-04-01T05:11:11;1.47;;;1.00;;
12814;SDS011;6472;52.328;13.070;2023-04-01T05:13:41;2.07;;;1.00;;
12814;SDS011;6472;52.328;13.070;2023-04-01T05:16:09;2.70;;;1.10;;
12814;SDS011;6472;52.328;13.070;2023-04-01T05:18:38;2.50;;;1.50;;
12814;SDS011;6472;52.328;13.070;2023-04-01T05:21:07;1.90;;;1.40;;
12814;SDS011;6472;52.328;13.070;2023-04-01T05:23:35;2.67;;;1.53;;
12814;SDS011;6472;52.328;13.070;2023-04-01T05:26:04;5.10;;;1.57;;
12814;SDS011;6472;52.328;13.070;2023-04-01T05:28:34;1.77;;;1.37;;
12814;SDS011;6472;52.328;13.070;2023-04-01T05:31:02;1.43;;;1.07;;
12814;SDS011;6472;52.328;13.070;2023-04-01T05:33:31;4.60;;;1.30;;
12814;SDS011;6472;52.328;13.070;2023-04-01T05:36:05;1.30;;;1.20;;
12814;SDS011;6472;52.328;13.070;2023-04-01T05:38:34;2.17;;;1.50;;
12814;SDS011;6472;52.328;13.070;2023-04-01T05:41:02;1.83;;;1.20;;
12814;SDS011;6472;52.328;13.070;2023-04-01T05:43:30;1.20;;;1.03;;
12814;SDS011;6472;52.328;13.070;2023-04-01T05:46:00;4.03;;;1.03;;
12814;SDS011;6472;52.328;13.070;2023-04-01T05:48:28;2.40;;;1.10;;
12814;SDS011;6472;52.328;13.070;2023-04-01T05:50:56;2.80;;;1.33;;
12814;SDS011;6472;52.328;13.070;2023-04-01T05:53:24;8.13;;;1.40;;
12814;SDS011;6472;52.328;13.070;2023-04-01T05:55:52;5.20;;;1.77;;
12814;SDS011;6472;52.328;13.070;2023-04-01T05:58:20;5.73;;;1.60;;
12814;SDS011;6472;52.328;13.070;2023-04-01T06:00:48;3.03;;;1.23;;
12814;SDS011;6472;52.328;13.070;2023-04-01T06:03:36;3.37;;;1.47;;
12814;SDS011;6472;52.328;13.070;2023-04-01T06:06:04;1.20;;;1.10;;
12814;SDS011;6472;52.328;13.070;2023-04-01T06:08:41;5.30;;;1.47;;
12814;SDS011;6472;52.328;13.070;2023-04-01T06:11:13;3.03;;;1.10;;
12814;SDS011;6472;52.328;13.070;2023-04-01T06:13:57;4.43;;;1.40;;
12814;SDS011;6472;52.328;13.070;2023-04-01T06:16:45;4.40;;;1.03;;
12814;SDS011;6472;52.328;13.070;2023-04-01T06:19:31;1.90;;;1.10;;
12814;SDS011;6472;52.328;13.070;2023-04-01T06:22:17;3.80;;;1.30;;
12814;SDS011;6472;52.328;13.070;2023-04-01T06:25:13;2.67;;;1.20;;
12814;SDS011;6472;52.328;13.070;2023-04-01T06:28:02;4.70;;;1.87;;
12814;SDS011;6472;52.328;13.070;2023-04-01T06:30:52;2.17;;;1.00;;
12814;SDS011;6472;52.328;13.070;2023-04-01T06:33:32;3.53;;;1.20;;
12814;SDS011;6472;52.328;13.070;2023-04-01T06:36:17;4.53;;;1.60;;
12814;SDS011;6472;52.328;13.070;2023-04-01T06:39:15;3.00;;;1.07;;
12814;SDS011;6472;52.328;13.070;2023-04-01T06:42:15;1.27;;;1.17;;
12814;SDS011;6472;52.328;13.070;2023-04-01T06:44:54;4.63;;;1.40;;
12814;SDS011;6472;52.328;13.070;2023-04-01T06:47:36;2.27;;;1.23;;
12814;SDS011;6472;52.328;13.070;2023-04-01T06:50:16;4.33;;;1.37;;
12814;SDS011;6472;52.328;13.070;2023-04-01T06:52:55;1.70;;;1.00;;
12814;SDS011;6472;52.328;13.070;2023-04-01T06:55:30;2.53;;;1.50;;
12814;SDS011;6472;52.328;13.070;2023-04-01T06:58:04;4.03;;;1.20;;
12814;SDS011;6472;52.328;13.070;2023-04-01T07:00:38;1.33;;;0.90;;
12814;SDS011;6472;52.328;13.070;2023-04-01T07:03:12;5.03;;;1.37;;
12814;SDS011;6472;52.328;13.070;2023-04-01T07:05:48;8.63;;;1.30;;
12814;SDS011;6472;52.328;13.070;2023-04-01T07:08:20;3.33;;;0.80;;
12814;SDS011;6472;52.328;13.070;2023-04-01T07:10:51;2.13;;;1.30;;
12814;SDS011;6472;52.328;13.070;2023-04-01T07:13:24;1.60;;;1.20;;
12814;SDS011;6472;52.328;13.070;2023-04-01T07:15:58;1.93;;;0.90;;
12814;SDS011;6472;52.328;13.070;2023-04-01T07:18:34;3.40;;;1.07;;
12814;SDS011;6472;52.328;13.070;2023-04-01T07:21:10;4.80;;;1.70;;
12814;SDS011;6472;52.328;13.070;2023-04-01T07:23:54;3.93;;;0.90;;
12814;SDS011;6472;52.328;13.070;2023-04-01T07:26:28;0.73;;;0.73;;
12814;SDS011;6472;52.328;13.070;2023-04-01T07:28:56;1.97;;;1.00;;
12814;SDS011;6472;52.328;13.070;2023-04-01T07:31:29;0.70;;;0.70;;
12814;SDS011;6472;52.328;13.070;2023-04-01T07:34:12;2.70;;;1.27;;
12814;SDS011;6472;52.328;13.070;2023-04-01T07:36:47;3.20;;;0.80;;
12814;SDS011;6472;52.328;13.070;2023-04-01T07:39:28;2.17;;;1.20;;
12814;SDS011;6472;52.328;13.070;2023-04-01T07:44:38;2.33;;;1.13;;
12814;SDS011;6472;52.328;13.070;2023-04-01T07:47:25;0.80;;;0.80;;
12814;SDS011;6472;52.328;13.070;2023-04-01T07:50:10;2.60;;;1.07;;
12814;SDS011;6472;52.328;13.070;2023-04-01T07:52:44;2.33;;;0.63;;
12814;SDS011;6472;52.328;13.070;2023-04-01T07:55:23;1.00;;;0.80;;
12814;SDS011;6472;52.328;13.070;2023-04-01T07:57:58;1.27;;;1.17;;
12814;SDS011;6472;52.328;13.070;2023-04-01T08:00:33;4.00;;;1.10;;
12814;SDS011;6472;52.328;13.070;2023-04-01T08:03:15;1.07;;;0.97;;
12814;SDS011;6472;52.328;13.070;2023-04-01T08:05:54;2.63;;;1.10;;
12814;SDS011;6472;52.328;13.070;2023-04-01T08:08:27;0.53;;;0.53;;
12814;SDS011;6472;52.328;13.070;2023-04-01T08:11:06;2.23;;;1.10;;
12814;SDS011;6472;52.328;13.070;2023-04-01T08:13:43;2.03;;;0.80;;
12814;SDS011;6472;52.328;13.070;2023-04-01T08:16:20;0.93;;;0.67;;
12814;SDS011;6472;52.328;13.070;2023-04-01T08:18:58;1.40;;;0.80;;
12814;SDS011;6472;52.328;13.070;2023-04-01T08:21:38;1.50;;;0.97;;
12814;SDS011;6472;52.328;13.070;2023-04-01T08:24:11;0.80;;;0.80;;
12814;SDS011;6472;52.328;13.070;2023-04-01T08:26:49;3.83;;;0.97;;
12814;SDS011;6472;52.328;13.070;2023-04-01T08:29:21;1.07;;;0.93;;
12814;SDS011;6472;52.328;13.070;2023-04-01T08:31:54;1.17;;;0.70;;
12814;SDS011;6472;52.328;13.070;2023-04-01T08:34:26;1.53;;;0.90;;
12814;SDS011;6472;52.328;13.070;2023-04-01T08:37:01;0.73;;;0.73;;
12814;SDS011;6472;52.328;13.070;2023-04-01T08:39:34;0.93;;;0.90;;
12814;SDS011;6472;52.328;13.070;2023-04-01T08:42:13;1.60;;;1.27;;
12814;SDS011;6472;52.328;13.070;2023-04-01T08:45:07;0.90;;;0.90;;
12814;SDS011;6472;52.328;13.070;2023-04-01T08:48:06;1.37;;;1.03;;
12814;SDS011;6472;52.328;13.070;2023-04-01T08:57:00;1.17;;;0.83;;
12814;SDS011;6472;52.328;13.070;2023-04-01T09:02:42;3.37;;;1.43;;
12814;SDS011;6472;52.328;13.070;2023-04-01T09:05:21;2.30;;;1.37;;
12814;SDS011;6472;52.328;13.070;2023-04-01T09:08:08;2.17;;;0.70;;
12814;SDS011;6472;52.328;13.070;2023-04-01T09:10:50;0.80;;;0.80;;
12814;SDS011;6472;52.328;13.070;2023-04-01T09:13:33;1.10;;;0.93;;
12814;SDS011;6472;52.328;13.070;2023-04-01T09:19:18;1.53;;;1.00;;
12814;SDS011;6472;52.328;13.070;2023-04-01T09:24:58;0.70;;;0.70;;
12814;SDS011;6472;52.328;13.070;2023-04-01T09:27:43;1.43;;;1.00;;
12814;SDS011;6472;52.328;13.070;2023-04-01T09:33:21;1.03;;;0.93;;
12814;SDS011;6472;52.328;13.070;2023-04-01T09:36:16;1.43;;;0.60;;
12814;SDS011;6472;52.328;13.070;2023-04-01T09:38:55;2.77;;;0.67;;
12814;SDS011;6472;52.328;13.070;2023-04-01T09:41:27;2.83;;;0.60;;
12814;SDS011;6472;52.328;13.070;2023-04-01T09:44:01;1.50;;;0.53;;
12814;SDS011;6472;52.328;13.070;2023-04-01T09:46:36;0.60;;;0.60;;
12814;SDS011;6472;52.328;13.070;2023-04-01T09:49:28;0.90;;;0.57;;
12814;SDS011;6472;52.328;13.070;2023-04-01T09:52:09;0.60;;;0.60;;
12814;SDS011;6472;52.328;13.070;2023-04-01T10:04:10;1.33;;;0.60;;
12814;SDS011;6472;52.328;13.070;2023-04-01T10:07:01;0.37;;;0.37;;
12814;SDS011;6472;52.328;13.070;2023-04-01T10:09:59;1.70;;;0.60;;
12814;SDS011;6472;52.328;13.070;2023-04-01T10:13:06;0.40;;;0.30;;
12814;SDS011;6472;52.328;13.070;2023-04-01T10:19:10;1.70;;;0.67;;
12814;SDS011;6472;52.328;13.070;2023-04-01T10:22:17;1.43;;;1.13;;
12814;SDS011;6472;52.328;13.070;2023-04-01T10:25:13;0.77;;;0.47;;
12814;SDS011;6472;52.328;13.070;2023-04-01T10:34:05;1.97;;;0.57;;
12814;SDS011;6472;52.328;13.070;2023-04-01T10:37:01;1.47;;;0.50;;
12814;SDS011;6472;52.328;13.070;2023-04-01T10:39:56;3.73;;;0.50;;
12814;SDS011;6472;52.328;13.070;2023-04-01T10:42:50;0.33;;;0.30;;
12814;SDS011;6472;52.328;13.070;2023-04-01T10:46:00;1.10;;;0.60;;
12814;SDS011;6472;52.328;13.070;2023-04-01T10:55:31;1.67;;;0.60;;
12814;SDS011;6472;52.328;13.070;2023-04-01T11:01:36;1.20;;;1.17;;
12814;SDS011;6472;52.328;13.070;2023-04-01T11:11:11;1.73;;;1.50;;
12814;SDS011;6472;52.328;13.070;2023-04-01T11:14:03;6.57;;;1.50;;
12814;SDS011;6472;52.328;13.070;2023-04-01T11:17:02;1.80;;;1.10;;
12814;SDS011;6472;52.328;13.070;2023-04-01T11:20:02;1.80;;;1.70;;
12814;SDS011;6472;52.328;13.070;2023-04-01T11:23:01;2.23;;;1.70;;
12814;SDS011;6472;52.328;13.070;2023-04-01T11:25:48;1.10;;;1.07;;
12814;SDS011;6472;52.328;13.070;2023-04-01T11:31:39;1.57;;;1.40;;
12814;SDS011;6472;52.328;13.070;2023-04-01T11:37:26;2.70;;;1.80;;
12814;SDS011;6472;52.328;13.070;2023-04-01T11:40:07;2.10;;;1.73;;
12814;SDS011;6472;52.328;13.070;2023-04-01T11:42:46;3.67;;;2.37;;
12814;SDS011;6472;52.328;13.070;2023-04-01T11:45:23;3.37;;;2.20;;
12814;SDS011;6472;52.328;13.070;2023-04-01T11:48:12;3.30;;;3.00;;
12814;SDS011;6472;52.328;13.070;2023-04-01T11:50:51;2.10;;;1.90;;
12814;SDS011;6472;52.328;13.070;2023-04-01T11:53:31;2.47;;;2.00;;
12814;SDS011;6472;52.328;13.070;2023-04-01T11:56:11;3.27;;;2.37;;
12814;SDS011;6472;52.328;13.070;2023-04-01T11:58:57;3.63;;;2.33;;
12814;SDS011;6472;52.328;13.070;2023-04-01T12:01:59;3.63;;;2.80;;
12814;SDS011;6472;52.328;13.070;2023-04-01T12:07:53;3.03;;;2.73;;
12814;SDS011;6472;52.328;13.070;2023-04-01T12:10:33;3.77;;;2.67;;
12814;SDS011;6472;52.328;13.070;2023-04-01T12:13:10;3.80;;;2.90;;
12814;SDS011;6472;52.328;13.070;2023-04-01T12:15:52;3.10;;;2.80;;
12814;SDS011;6472;52.328;13.070;2023-04-01T12:18:33;3.40;;;2.60;;
12814;SDS011;6472;52.328;13.070;2023-04-01T12:21:11;6.10;;;3.43;;
12814;SDS011;6472;52.328;13.070;2023-04-01T12:23:54;2.83;;;2.63;;
12814;SDS011;6472;52.328;13.070;2023-04-01T12:26:33;2.97;;;2.67;;
12814;SDS011;6472;52.328;13.070;2023-04-01T12:29:21;3.13;;;2.70;;
12814;SDS011;6472;52.328;13.070;2023-04-01T12:32:14;2.83;;;2.20;;
12814;SDS011;6472;52.328;13.070;2023-04-01T12:34:58;2.80;;;2.30;;
12814;SDS011;6472;52.328;13.070;2023-04-01T12:37:45;3.80;;;2.20;;
12814;SDS011;6472;52.328;13.070;2023-04-01T12:40:31;2.03;;;1.87;;
12814;SDS011;6472;52.328;13.070;2023-04-01T12:46:26;2.53;;;1.93;;
12814;SDS011;6472;52.328;13.070;2023-04-01T12:49:16;2.60;;;1.80;;
12814;SDS011;6472;52.328;13.070;2023-04-01T12:52:02;2.40;;;1.67;;
12814;SDS011;6472;52.328;13.070;2023-04-01T13:03:48;1.83;;;1.73;;
12814;SDS011;6472;52.328;13.070;2023-04-01T13:06:32;1.67;;;1.50;;
12814;SDS011;6472;52.328;13.070;2023-04-01T13:09:11;2.13;;;1.93;;
12814;SDS011;6472;52.328;13.070;2023-04-01T13:11:57;2.33;;;1.50;;
12814;SDS011;6472;52.328;13.070;2023-04-01T13:14:37;2.77;;;1.80;;
12814;SDS011;6472;52.328;13.070;2023-04-01T13:17:18;1.67;;;1.37;;
12814;SDS011;6472;52.328;13.070;2023-04-01T13:19:51;1.10;;;1.00;;
12814;SDS011;6472;52.328;13.070;2023-04-01T13:22:35;1.70;;;1.47;;
12814;SDS011;6472;52.328;13.070;2023-04-01T13:25:14;1.63;;;1.53;;
12814;SDS011;6472;52.328;13.070;2023-04-01T13:27:56;1.57;;;1.47;;
12814;SDS011;6472;52.328;13.070;2023-04-01T13:30:30;1.93;;;1.70;;
12814;SDS011;6472;52.328;13.070;2023-04-01T13:33:06;1.53;;;1.43;;
12814;SDS011;6472;52.328;13.070;2023-04-01T13:35:46;2.70;;;2.03;;
12814;SDS011;6472;52.328;13.070;2023-04-01T13:38:39;2.47;;;1.70;;
12814;SDS011;6472;52.328;13.070;2023-04-01T13:41:32;2.00;;;1.90;;
12814;SDS011;6472;52.328;13.070;2023-04-01T13:44:30;2.30;;;1.80;;
12814;SDS011;6472;52.328;13.070;2023-04-01T13:47:05;2.10;;;1.90;;
12814;SDS011;6472;52.328;13.070;2023-04-01T13:49:46;2.20;;;1.70;;
12814;SDS011;6472;52.328;13.070;2023-04-01T13:52:50;2.23;;;1.53;;
12814;SDS011;6472;52.328;13.070;2023-04-01T13:55:44;2.70;;;2.13;;
12814;SDS011;6472;52.328;13.070;2023-04-01T13:58:38;2.90;;;2.47;;
12814;SDS011;6472;52.328;13.070;2023-04-01T14:01:17;3.70;;;2.70;;
12814;SDS011;6472;52.328;13.070;2023-04-01T14:10:13;2.70;;;2.20;;
12814;SDS011;6472;52.328;13.070;2023-04-01T14:12:56;2.70;;;2.27;;
12814;SDS011;6472;52.328;13.070;2023-04-01T14:15:29;3.87;;;2.20;;
12814;SDS011;6472;52.328;13.070;2023-04-01T14:18:13;3.20;;;2.90;;
12814;SDS011;6472;52.328;13.070;2023-04-01T14:20:51;3.80;;;2.70;;
12814;SDS011;6472;52.328;13.070;2023-04-01T14:23:37;3.00;;;2.70;;
12814;SDS011;6472;52.328;13.070;2023-04-01T14:26:22;6.17;;;2.60;;
12814;SDS011;6472;52.328;13.070;2023-04-01T14:29:12;4.67;;;4.00;;
12814;SDS011;6472;52.328;13.070;2023-04-01T14:31:59;5.00;;;3.87;;
12814;SDS011;6472;52.328;13.070;2023-04-01T14:34:38;3.27;;;2.80;;
12814;SDS011;6472;52.328;13.070;2023-04-01T14:37:32;3.70;;;2.50;;
12814;SDS011;6472;52.328;13.070;2023-04-01T14:40:28;3.17;;;2.87;;
12814;SDS011;6472;52.328;13.070;2023-04-01T14:43:25;3.20;;;2.70;;
12814;SDS011;6472;52.328;13.070;2023-04-01T14:46:14;2.50;;;2.30;;
12814;SDS011;6472;52.328;13.070;2023-04-01T14:48:56;3.77;;;1.97;;
12814;SDS011;6472;52.328;13.070;2023-04-01T14:51:30;4.10;;;2.80;;
12814;SDS011;6472;52.328;13.070;2023-04-01T14:54:04;3.43;;;2.67;;
12814;SDS011;6472;52.328;13.070;2023-04-01T14:56:37;2.60;;;2.17;;
12814;SDS011;6472;52.328;13.070;2023-04-01T14:59:08;4.33;;;3.70;;
12814;SDS011;6472;52.328;13.070;2023-04-01T15:01:42;4.67;;;3.77;;
12814;SDS011;6472;52.328;13.070;2023-04-01T15:04:23;5.60;;;4.47;;
12814;SDS011;6472;52.328;13.070;2023-04-01T15:07:07;7.03;;;4.53;;
12814;SDS011;6472;52.328;13.070;2023-04-01T15:09:50;6.47;;;4.30;;
12814;SDS011;6472;52.328;13.070;2023-04-01T15:12:26;5.50;;;4.07;;
12814;SDS011;6472;52.328;13.070;2023-04-01T15:15:03;3.67;;;3.33;;
12814;SDS011;6472;52.328;13.070;2023-04-01T15:17:55;5.97;;;4.13;;
12814;SDS011;6472;52.328;13.070;2023-04-01T15:23:39;7.07;;;4.83;;
12814;SDS011;6472;52.328;13.070;2023-04-01T15:26:16;9.10;;;5.00;;
12814;SDS011;6472;52.328;13.070;2023-04-01T15:28:57;5.57;;;3.87;;
12814;SDS011;6472;52.328;13.070;2023-04-01T15:31:35;5.47;;;4.50;;
12814;SDS011;6472;52.328;13.070;2023-04-01T15:34:19;5.03;;;4.27;;
12814;SDS011;6472;52.328;13.070;2023-04-01T15:36:54;6.07;;;3.80;;
12814;SDS011;6472;52.328;13.070;2023-04-01T15:39:30;5.23;;;4.47;;
12814;SDS011;6472;52.328;13.070;2023-04-01T15:42:12;8.67;;;4.17;;
12814;SDS011;6472;52.328;13.070;2023-04-01T15:44:53;5.50;;;4.60;;
12814;SDS011;6472;52.328;13.070;2023-04-01T15:47:32;5.30;;;4.37;;
12814;SDS011;6472;52.328;13.070;2023-04-01T15:53:11;6.97;;;4.50;;
12814;SDS011;6472;52.328;13.070;2023-04-01T15:56:06;5.23;;;4.67;;
12814;SDS011;6472;52.328;13.070;2023-04-01T15:58:44;6.57;;;4.17;;
12814;SDS011;6472;52.328;13.070;2023-04-01T16:01:24;5.23;;;3.93;;
12814;SDS011;6472;52.328;13.070;2023-04-01T16:04:06;6.43;;;3.53;;
12814;SDS011;6472;52.328;13.070;2023-04-01T16:06:51;5.37;;;4.00;;
12814;SDS011;6472;52.328;13.070;2023-04-01T16:09:29;3.20;;;2.90;;
12814;SDS011;6472;52.328;13.070;2023-04-01T16:12:15;4.43;;;3.93;;
12814;SDS011;6472;52.328;13.070;2023-04-01T16:14:50;5.40;;;4.50;;
12814;SDS011;6472;52.328;13.070;2023-04-01T16:17:44;4.03;;;3.53;;
12814;SDS011;6472;52.328;13.070;2023-04-01T16:20:27;6.37;;;4.33;;
12814;SDS011;6472;52.328;13.070;2023-04-01T16:23:11;6.10;;;4.17;;
12814;SDS011;6472;52.328;13.070;2023-04-01T16:25:45;6.37;;;4.67;;
12814;SDS011;6472;52.328;13.070;2023-04-01T16:28:21;6.50;;;4.37;;
12814;SDS011;6472;52.328;13.070;2023-04-01T16:30:55;5.87;;;4.20;;
12814;SDS011;6472;52.328;13.070;2023-04-01T16:33:31;6.30;;;4.07;;
12814;SDS011;6472;52.328;13.070;2023-04-01T16:36:08;6.50;;;3.73;;
12814;SDS011;6472;52.328;13.070;2023-04-01T16:38:42;4.27;;;3.47;;
12814;SDS011;6472;52.328;13.070;2023-04-01T16:41:17;5.27;;;3.60;;
12814;SDS011;6472;52.328;13.070;2023-04-01T16:43:53;4.70;;;3.60;;
12814;SDS011;6472;52.328;13.070;2023-04-01T16:46:28;3.73;;;2.87;;
12814;SDS011;6472;52.328;13.070;2023-04-01T16:49:03;4.07;;;3.10;;
12814;SDS011;6472;52.328;13.070;2023-04-01T16:51:46;4.00;;;3.43;;
12814;SDS011;6472;52.328;13.070;2023-04-01T16:54:17;3.97;;;2.93;;
12814;SDS011;6472;52.328;13.070;2023-04-01T16:56:55;4.87;;;3.00;;
12814;SDS011;6472;52.328;13.070;2023-04-01T16:59:35;6.13;;;3.13;;
12814;SDS011;6472;52.328;13.070;2023-04-01T17:02:08;5.07;;;3.37;;
12814;SDS011;6472;52.328;13.070;2023-04-01T17:04:40;4.00;;;3.20;;
12814;SDS011;6472;52.328;13.070;2023-04-01T17:07:17;5.13;;;3.87;;
12814;SDS011;6472;52.328;13.070;2023-04-01T17:09:58;4.67;;;3.60;;
12814;SDS011;6472;52.328;13.070;2023-04-01T17:12:40;8.70;;;4.00;;
12814;SDS011;6472;52.328;13.070;2023-04-01T17:15:17;4.33;;;3.20;;
12814;SDS011;6472;52.328;13.070;2023-04-01T17:17:58;5.27;;;3.67;;
12814;SDS011;6472;52.328;13.070;2023-04-01T17:20:31;4.93;;;3.70;;
12814;SDS011;6472;52.328;13.070;2023-04-01T17:23:11;4.40;;;3.60;;